sensor_id;sensor_type;location;lat;lon;timestamp;temperature;humidity
18948;DHT22;9607;51.600;7.558;2022-08-19T00:02:19;17.60;99.90
18948;DHT22;9607;51.600;7.558;2022-08-19T00:04:46;17.60;99.90
18948;DHT22;9607;51.600;7.558;2022-08-19T00:07:17;17.50;99.90
18948;DHT22;9607;51.600;7.558;2022-08-19T00:09:44;17.60;99.90
18948;DHT22;9607;51.600;7.558;2022-08-19T00:12:14;17.50;99.90
18948;DHT22;9607;51.600;7.558;2022-08-19T00:14:47;17.40;99.90
18948;DHT22;9607;51.600;7.558;2022-08-19T00:17:14;17.40;99.90
18948;DHT22;9607;51.600;7.558;2022-08-19T00:19:46;17.40;99.90
18948;DHT22;9607;51.600;7.558;2022-08-19T00:22:15;17.30;99.90
18948;DHT22;9607;51.600;7.558;2022-08-19T00:25:02;17.30;99.90
18948;DHT22;9607;51.600;7.558;2022-08-19T00:27:30;17.30;99.90
18948;DHT22;9607;51.600;7.558;2022-08-19T00:29:57;17.20;99.90
18948;DHT22;9607;51.600;7.558;2022-08-19T00:32:24;17.20;99.90
18948;DHT22;9607;51.600;7.558;2022-08-19T00:34:51;17.20;99.90
18948;DHT22;9607;51.600;7.558;2022-08-19T00:37:19;17.10;99.90
18948;DHT22;9607;51.600;7.558;2022-08-19T00:39:48;17.10;99.90
18948;DHT22;9607;51.600;7.558;2022-08-19T00:42:17;17.00;99.90
18948;DHT22;9607;51.600;7.558;2022-08-19T00:44:47;17.00;99.90
18948;DHT22;9607;51.600;7.558;2022-08-19T00:47:16;17.00;99.90
18948;DHT22;9607;51.600;7.558;2022-08-19T00:49:48;17.00;99.90
18948;DHT22;9607;51.600;7.558;2022-08-19T00:52:21;16.90;99.90
18948;DHT22;9607;51.600;7.558;2022-08-19T00:55:09;16.90;99.90
18948;DHT22;9607;51.600;7.558;2022-08-19T00:57:48;16.80;99.90
18948;DHT22;9607;51.600;7.558;2022-08-19T01:00:33;16.80;99.90
18948;DHT22;9607;51.600;7.558;2022-08-19T01:03:03;16.80;99.90
18948;DHT22;9607;51.600;7.558;2022-08-19T01:05:31;16.80;99.90
18948;DHT22;9607;51.600;7.558;2022-08-19T01:08:00;16.80;99.90
18948;DHT22;9607;51.600;7.558;2022-08-19T01:10:32;16.70;99.90
18948;DHT22;9607;51.600;7.558;2022-08-19T01:13:01;16.70;99.90
18948;DHT22;9607;51.600;7.558;2022-08-19T01:15:38;16.60;99.90
18948;DHT22;9607;51.600;7.558;2022-08-19T01:18:09;16.60;99.90
18948;DHT22;9607;51.600;7.558;2022-08-19T01:21:05;16.60;99.90
18948;DHT22;9607;51.600;7.558;2022-08-19T01:23:41;16.50;99.90
18948;DHT22;9607;51.600;7.558;2022-08-19T01:26:30;16.50;99.90
18948;DHT22;9607;51.600;7.558;2022-08-19T01:29:16;16.50;99.90
18948;DHT22;9607;51.600;7.558;2022-08-19T01:32:07;16.50;99.90
18948;DHT22;9607;51.600;7.558;2022-08-19T01:34:46;16.50;99.90
18948;DHT22;9607;51.600;7.558;2022-08-19T01:37:14;16.40;99.90
18948;DHT22;9607;51.600;7.558;2022-08-19T01:39:43;16.40;99.90
18948;DHT22;9607;51.600;7.558;2022-08-19T01:42:17;16.40;99.90
18948;DHT22;9607;51.600;7.558;2022-08-19T01:45:02;16.40;99.90
18948;DHT22;9607;51.600;7.558;2022-08-19T01:47:36;16.40;99.90
18948;DHT22;9607;51.600;7.558;2022-08-19T01:50:15;16.40;99.90
18948;DHT22;9607;51.600;7.558;2022-08-19T01:52:44;16.40;99.90
18948;DHT22;9607;51.600;7.558;2022-08-19T01:55:20;16.40;99.90
18948;DHT22;9607;51.600;7.558;2022-08-19T02:00:29;16.40;99.90
18948;DHT22;9607;51.600;7.558;2022-08-19T02:02:56;16.30;99.90
18948;DHT22;9607;51.600;7.558;2022-08-19T02:05:23;16.40;99.90
18948;DHT22;9607;51.600;7.558;2022-08-19T02:07:53;16.40;99.90
18948;DHT22;9607;51.600;7.558;2022-08-19T02:10:23;16.40;99.90
18948;DHT22;9607;51.600;7.558;2022-08-19T02:13:02;16.40;99.90
18948;DHT22;9607;51.600;7.558;2022-08-19T02:15:31;16.40;99.90
18948;DHT22;9607;51.600;7.558;2022-08-19T02:18:01;16.40;99.90
18948;DHT22;9607;51.600;7.558;2022-08-19T02:20:33;16.40;99.90
18948;DHT22;9607;51.600;7.558;2022-08-19T02:23:02;16.40;99.90
18948;DHT22;9607;51.600;7.558;2022-08-19T02:25:32;16.50;99.90
18948;DHT22;9607;51.600;7.558;2022-08-19T02:27:59;16.50;99.90
18948;DHT22;9607;51.600;7.558;2022-08-19T02:30:32;16.50;99.90
18948;DHT22;9607;51.600;7.558;2022-08-19T02:33:03;16.50;99.90
18948;DHT22;9607;51.600;7.558;2022-08-19T02:35:32;16.40;99.90
18948;DHT22;9607;51.600;7.558;2022-08-19T02:38:03;16.40;99.90
18948;DHT22;9607;51.600;7.558;2022-08-19T02:40:57;16.30;99.90
18948;DHT22;9607;51.600;7.558;2022-08-19T02:43:25;16.30;99.90
18948;DHT22;9607;51.600;7.558;2022-08-19T02:45:53;16.30;99.90
18948;DHT22;9607;51.600;7.558;2022-08-19T02:48:25;16.30;99.90
18948;DHT22;9607;51.600;7.558;2022-08-19T02:51:04;16.30;99.90
18948;DHT22;9607;51.600;7.558;2022-08-19T02:53:32;16.30;99.90
18948;DHT22;9607;51.600;7.558;2022-08-19T02:56:05;16.30;99.90
18948;DHT22;9607;51.600;7.558;2022-08-19T02:58:34;16.30;99.90
18948;DHT22;9607;51.600;7.558;2022-08-19T03:01:19;16.30;99.90
18948;DHT22;9607;51.600;7.558;2022-08-19T03:03:47;16.30;99.90
18948;DHT22;9607;51.600;7.558;2022-08-19T03:06:19;16.40;99.90
18948;DHT22;9607;51.600;7.558;2022-08-19T03:08:49;16.30;99.90
18948;DHT22;9607;51.600;7.558;2022-08-19T03:11:19;16.40;99.90
18948;DHT22;9607;51.600;7.558;2022-08-19T03:13:49;16.30;99.90
18948;DHT22;9607;51.600;7.558;2022-08-19T03:16:16;16.30;99.90
18948;DHT22;9607;51.600;7.558;2022-08-19T03:18:43;16.40;99.90
18948;DHT22;9607;51.600;7.558;2022-08-19T03:21:17;16.30;99.90
18948;DHT22;9607;51.600;7.558;2022-08-19T03:23:55;16.30;99.90
18948;DHT22;9607;51.600;7.558;2022-08-19T03:26:26;16.30;99.90
18948;DHT22;9607;51.600;7.558;2022-08-19T03:28:55;16.30;99.90
18948;DHT22;9607;51.600;7.558;2022-08-19T03:31:23;16.30;99.90
18948;DHT22;9607;51.600;7.558;2022-08-19T03:34:00;16.30;99.90
18948;DHT22;9607;51.600;7.558;2022-08-19T03:36:27;16.20;99.90
18948;DHT22;9607;51.600;7.558;2022-08-19T03:38:56;16.20;99.90
18948;DHT22;9607;51.600;7.558;2022-08-19T03:41:35;16.20;99.90
18948;DHT22;9607;51.600;7.558;2022-08-19T03:44:04;16.20;99.90
18948;DHT22;9607;51.600;7.558;2022-08-19T03:46:32;16.20;99.90
18948;DHT22;9607;51.600;7.558;2022-08-19T03:49:03;16.20;99.90
18948;DHT22;9607;51.600;7.558;2022-08-19T03:51:36;16.20;99.90
18948;DHT22;9607;51.600;7.558;2022-08-19T03:54:15;16.20;99.90
18948;DHT22;9607;51.600;7.558;2022-08-19T03:56:51;16.20;99.90
18948;DHT22;9607;51.600;7.558;2022-08-19T03:59:23;16.20;99.90
18948;DHT22;9607;51.600;7.558;2022-08-19T04:01:53;16.30;99.90
18948;DHT22;9607;51.600;7.558;2022-08-19T04:04:20;16.20;99.90
18948;DHT22;9607;51.600;7.558;2022-08-19T04:06:48;16.20;99.90
18948;DHT22;9607;51.600;7.558;2022-08-19T04:09:16;16.20;99.90
18948;DHT22;9607;51.600;7.558;2022-08-19T04:11:44;16.20;99.90
18948;DHT22;9607;51.600;7.558;2022-08-19T04:14:29;16.10;99.90
18948;DHT22;9607;51.600;7.558;2022-08-19T04:16:58;16.00;99.90
18948;DHT22;9607;51.600;7.558;2022-08-19T04:19:26;16.00;99.90
18948;DHT22;9607;51.600;7.558;2022-08-19T04:21:55;16.00;99.90
18948;DHT22;9607;51.600;7.558;2022-08-19T04:24:23;15.90;99.90
18948;DHT22;9607;51.600;7.558;2022-08-19T04:26:50;15.80;99.90
18948;DHT22;9607;51.600;7.558;2022-08-19T04:29:21;15.90;99.90
18948;DHT22;9607;51.600;7.558;2022-08-19T04:31:52;15.90;99.90
18948;DHT22;9607;51.600;7.558;2022-08-19T04:34:22;15.90;99.90
18948;DHT22;9607;51.600;7.558;2022-08-19T04:36:50;15.90;99.90
18948;DHT22;9607;51.600;7.558;2022-08-19T04:39:21;15.90;99.90
18948;DHT22;9607;51.600;7.558;2022-08-19T04:41:48;15.90;99.90
18948;DHT22;9607;51.600;7.558;2022-08-19T04:44:34;15.90;99.90
18948;DHT22;9607;51.600;7.558;2022-08-19T04:47:03;15.90;99.90
18948;DHT22;9607;51.600;7.558;2022-08-19T04:49:33;15.90;99.90
18948;DHT22;9607;51.600;7.558;2022-08-19T04:51:59;15.90;99.90
18948;DHT22;9607;51.600;7.558;2022-08-19T04:54:26;15.90;99.90
18948;DHT22;9607;51.600;7.558;2022-08-19T04:56:53;16.00;99.90
18948;DHT22;9607;51.600;7.558;2022-08-19T04:59:20;16.00;99.90
18948;DHT22;9607;51.600;7.558;2022-08-19T05:01:47;15.90;99.90
18948;DHT22;9607;51.600;7.558;2022-08-19T05:04:18;16.00;99.90
18948;DHT22;9607;51.600;7.558;2022-08-19T05:06:46;16.00;99.90
18948;DHT22;9607;51.600;7.558;2022-08-19T05:09:14;15.90;99.90
18948;DHT22;9607;51.600;7.558;2022-08-19T05:11:41;15.90;99.90
18948;DHT22;9607;51.600;7.558;2022-08-19T05:14:08;15.90;99.90
18948;DHT22;9607;51.600;7.558;2022-08-19T05:16:38;15.90;99.90
18948;DHT22;9607;51.600;7.558;2022-08-19T05:19:05;15.90;99.90
18948;DHT22;9607;51.600;7.558;2022-08-19T05:21:51;15.90;99.90
18948;DHT22;9607;51.600;7.558;2022-08-19T05:24:36;16.00;99.90
18948;DHT22;9607;51.600;7.558;2022-08-19T05:27:03;16.10;99.90
18948;DHT22;9607;51.600;7.558;2022-08-19T05:29:31;16.20;99.90
18948;DHT22;9607;51.600;7.558;2022-08-19T05:32:00;16.40;99.90
18948;DHT22;9607;51.600;7.558;2022-08-19T05:34:27;16.50;99.90
18948;DHT22;9607;51.600;7.558;2022-08-19T05:36:57;16.70;99.90
18948;DHT22;9607;51.600;7.558;2022-08-19T05:39:26;16.70;99.90
18948;DHT22;9607;51.600;7.558;2022-08-19T05:41:55;16.80;99.90
18948;DHT22;9607;51.600;7.558;2022-08-19T05:44:23;16.80;99.90
18948;DHT22;9607;51.600;7.558;2022-08-19T05:46:50;16.90;99.90
18948;DHT22;9607;51.600;7.558;2022-08-19T05:49:20;17.00;99.90
18948;DHT22;9607;51.600;7.558;2022-08-19T05:51:48;17.00;99.90
18948;DHT22;9607;51.600;7.558;2022-08-19T05:54:17;17.10;99.90
18948;DHT22;9607;51.600;7.558;2022-08-19T05:56:45;17.20;99.90
18948;DHT22;9607;51.600;7.558;2022-08-19T05:59:14;17.30;99.90
18948;DHT22;9607;51.600;7.558;2022-08-19T06:01:44;17.40;99.90
18948;DHT22;9607;51.600;7.558;2022-08-19T06:04:12;17.40;99.90
18948;DHT22;9607;51.600;7.558;2022-08-19T06:06:40;17.50;99.90
18948;DHT22;9607;51.600;7.558;2022-08-19T06:09:08;17.60;99.90
18948;DHT22;9607;51.600;7.558;2022-08-19T06:11:38;17.70;99.90
18948;DHT22;9607;51.600;7.558;2022-08-19T06:14:08;17.70;99.90
18948;DHT22;9607;51.600;7.558;2022-08-19T06:16:36;17.80;99.90
18948;DHT22;9607;51.600;7.558;2022-08-19T06:19:06;18.00;99.90
18948;DHT22;9607;51.600;7.558;2022-08-19T06:21:33;18.10;99.90
18948;DHT22;9607;51.600;7.558;2022-08-19T06:24:03;18.30;99.90
18948;DHT22;9607;51.600;7.558;2022-08-19T06:26:31;18.50;99.90
18948;DHT22;9607;51.600;7.558;2022-08-19T06:28:59;18.60;99.90
18948;DHT22;9607;51.600;7.558;2022-08-19T06:31:27;18.80;99.90
18948;DHT22;9607;51.600;7.558;2022-08-19T06:33:54;19.00;99.90
18948;DHT22;9607;51.600;7.558;2022-08-19T06:36:24;19.10;99.90
18948;DHT22;9607;51.600;7.558;2022-08-19T06:38:52;19.30;99.90
18948;DHT22;9607;51.600;7.558;2022-08-19T06:41:19;19.50;99.90
18948;DHT22;9607;51.600;7.558;2022-08-19T06:43:46;19.70;99.90
18948;DHT22;9607;51.600;7.558;2022-08-19T06:46:16;19.90;99.90
18948;DHT22;9607;51.600;7.558;2022-08-19T06:48:44;20.10;99.90
18948;DHT22;9607;51.600;7.558;2022-08-19T06:51:12;20.20;99.90
18948;DHT22;9607;51.600;7.558;2022-08-19T06:53:41;20.30;99.90
18948;DHT22;9607;51.600;7.558;2022-08-19T06:56:15;20.40;99.90
18948;DHT22;9607;51.600;7.558;2022-08-19T06:58:42;20.50;99.90
18948;DHT22;9607;51.600;7.558;2022-08-19T07:01:09;20.50;99.90
18948;DHT22;9607;51.600;7.558;2022-08-19T07:03:38;20.50;99.90
18948;DHT22;9607;51.600;7.558;2022-08-19T07:06:07;20.60;99.90
18948;DHT22;9607;51.600;7.558;2022-08-19T07:08:36;20.60;99.90
18948;DHT22;9607;51.600;7.558;2022-08-19T07:11:07;20.60;99.90
18948;DHT22;9607;51.600;7.558;2022-08-19T07:13:36;20.60;99.90
18948;DHT22;9607;51.600;7.558;2022-08-19T07:16:04;20.60;99.90
18948;DHT22;9607;51.600;7.558;2022-08-19T07:18:31;20.60;99.90
18948;DHT22;9607;51.600;7.558;2022-08-19T07:21:04;20.60;99.90
18948;DHT22;9607;51.600;7.558;2022-08-19T07:23:32;20.60;99.90
18948;DHT22;9607;51.600;7.558;2022-08-19T07:26:05;20.60;99.90
18948;DHT22;9607;51.600;7.558;2022-08-19T07:28:32;20.60;99.90
18948;DHT22;9607;51.600;7.558;2022-08-19T07:30:59;20.60;99.90
18948;DHT22;9607;51.600;7.558;2022-08-19T07:33:27;20.60;99.90
18948;DHT22;9607;51.600;7.558;2022-08-19T07:35:57;20.60;99.90
18948;DHT22;9607;51.600;7.558;2022-08-19T07:38:25;20.60;99.90
18948;DHT22;9607;51.600;7.558;2022-08-19T07:40:52;20.70;99.90
18948;DHT22;9607;51.600;7.558;2022-08-19T07:43:19;20.80;99.90
18948;DHT22;9607;51.600;7.558;2022-08-19T07:45:48;20.80;99.90
18948;DHT22;9607;51.600;7.558;2022-08-19T07:48:15;20.90;99.90
18948;DHT22;9607;51.600;7.558;2022-08-19T07:50:42;21.00;99.90
18948;DHT22;9607;51.600;7.558;2022-08-19T07:53:08;21.10;99.90
18948;DHT22;9607;51.600;7.558;2022-08-19T07:55:38;21.20;99.90
18948;DHT22;9607;51.600;7.558;2022-08-19T07:58:05;21.30;99.90
18948;DHT22;9607;51.600;7.558;2022-08-19T08:00:33;21.30;99.90
18948;DHT22;9607;51.600;7.558;2022-08-19T08:03:00;21.50;99.90
18948;DHT22;9607;51.600;7.558;2022-08-19T08:05:27;21.60;99.90
18948;DHT22;9607;51.600;7.558;2022-08-19T08:08:11;21.70;99.90
18948;DHT22;9607;51.600;7.558;2022-08-19T08:11:03;21.80;99.90
18948;DHT22;9607;51.600;7.558;2022-08-19T08:13:30;22.00;99.90
18948;DHT22;9607;51.600;7.558;2022-08-19T08:15:58;22.10;99.90
18948;DHT22;9607;51.600;7.558;2022-08-19T08:18:25;22.20;99.90
18948;DHT22;9607;51.600;7.558;2022-08-19T08:20:52;22.30;99.90
18948;DHT22;9607;51.600;7.558;2022-08-19T08:23:19;22.40;99.90
18948;DHT22;9607;51.600;7.558;2022-08-19T08:25:48;22.40;99.90
18948;DHT22;9607;51.600;7.558;2022-08-19T08:28:17;22.50;99.90
18948;DHT22;9607;51.600;7.558;2022-08-19T08:30:44;22.50;99.90
18948;DHT22;9607;51.600;7.558;2022-08-19T08:33:13;22.50;99.90
18948;DHT22;9607;51.600;7.558;2022-08-19T08:35:41;22.60;99.90
18948;DHT22;9607;51.600;7.558;2022-08-19T08:38:11;22.60;99.90
18948;DHT22;9607;51.600;7.558;2022-08-19T08:40:43;22.70;99.90
18948;DHT22;9607;51.600;7.558;2022-08-19T08:43:28;22.70;99.90
18948;DHT22;9607;51.600;7.558;2022-08-19T08:46:00;22.80;99.90
18948;DHT22;9607;51.600;7.558;2022-08-19T08:48:36;22.90;99.90
18948;DHT22;9607;51.600;7.558;2022-08-19T08:51:07;23.00;99.90
18948;DHT22;9607;51.600;7.558;2022-08-19T08:53:36;23.10;99.90
18948;DHT22;9607;51.600;7.558;2022-08-19T08:56:06;23.20;99.90
18948;DHT22;9607;51.600;7.558;2022-08-19T08:58:46;23.30;99.90
18948;DHT22;9607;51.600;7.558;2022-08-19T09:01:14;23.40;99.90
18948;DHT22;9607;51.600;7.558;2022-08-19T09:03:42;23.50;99.90
18948;DHT22;9607;51.600;7.558;2022-08-19T09:06:14;23.70;99.90
18948;DHT22;9607;51.600;7.558;2022-08-19T09:08:49;23.80;99.90
18948;DHT22;9607;51.600;7.558;2022-08-19T09:11:33;24.10;99.90
18948;DHT22;9607;51.600;7.558;2022-08-19T09:14:14;24.50;99.90
18948;DHT22;9607;51.600;7.558;2022-08-19T09:16:45;24.90;99.90
18948;DHT22;9607;51.600;7.558;2022-08-19T09:19:13;25.10;99.90
18948;DHT22;9607;51.600;7.558;2022-08-19T09:21:41;25.20;99.90
18948;DHT22;9607;51.600;7.558;2022-08-19T09:24:08;25.20;99.90
18948;DHT22;9607;51.600;7.558;2022-08-19T09:26:35;25.20;99.90
18948;DHT22;9607;51.600;7.558;2022-08-19T09:29:02;25.10;99.90
18948;DHT22;9607;51.600;7.558;2022-08-19T09:31:31;25.00;99.90
18948;DHT22;9607;51.600;7.558;2022-08-19T09:33:59;24.90;99.90
18948;DHT22;9607;51.600;7.558;2022-08-19T09:36:30;25.00;99.90
18948;DHT22;9607;51.600;7.558;2022-08-19T09:39:02;25.10;99.90
18948;DHT22;9607;51.600;7.558;2022-08-19T09:41:29;25.30;99.80
18948;DHT22;9607;51.600;7.558;2022-08-19T09:43:58;25.40;98.80
18948;DHT22;9607;51.600;7.558;2022-08-19T09:46:27;25.50;99.00
18948;DHT22;9607;51.600;7.558;2022-08-19T09:48:57;25.70;98.90
18948;DHT22;9607;51.600;7.558;2022-08-19T09:51:26;25.90;98.10
18948;DHT22;9607;51.600;7.558;2022-08-19T09:53:55;25.90;98.10
18948;DHT22;9607;51.600;7.558;2022-08-19T09:56:28;25.90;97.60
18948;DHT22;9607;51.600;7.558;2022-08-19T09:58:58;25.70;97.70
18948;DHT22;9607;51.600;7.558;2022-08-19T10:01:26;25.60;97.10
18948;DHT22;9607;51.600;7.558;2022-08-19T10:03:57;25.50;97.20
18948;DHT22;9607;51.600;7.558;2022-08-19T10:06:27;25.40;94.80
18948;DHT22;9607;51.600;7.558;2022-08-19T10:08:55;25.40;94.60
18948;DHT22;9607;51.600;7.558;2022-08-19T10:11:22;25.40;94.70
18948;DHT22;9607;51.600;7.558;2022-08-19T10:13:49;25.60;94.70
18948;DHT22;9607;51.600;7.558;2022-08-19T10:16:20;25.80;94.20
18948;DHT22;9607;51.600;7.558;2022-08-19T10:18:48;26.10;93.30
18948;DHT22;9607;51.600;7.558;2022-08-19T10:21:19;26.40;92.90
18948;DHT22;9607;51.600;7.558;2022-08-19T10:23:48;26.60;92.40
18948;DHT22;9607;51.600;7.558;2022-08-19T10:26:18;26.90;91.90
18948;DHT22;9607;51.600;7.558;2022-08-19T10:28:45;27.00;89.70
18948;DHT22;9607;51.600;7.558;2022-08-19T10:31:13;26.80;87.70
18948;DHT22;9607;51.600;7.558;2022-08-19T10:33:41;26.50;88.40
18948;DHT22;9607;51.600;7.558;2022-08-19T10:36:10;26.50;89.60
18948;DHT22;9607;51.600;7.558;2022-08-19T10:38:43;26.50;90.40
18948;DHT22;9607;51.600;7.558;2022-08-19T10:41:14;26.60;87.70
18948;DHT22;9607;51.600;7.558;2022-08-19T10:43:42;26.60;87.60
18948;DHT22;9607;51.600;7.558;2022-08-19T10:46:13;26.40;90.20
18948;DHT22;9607;51.600;7.558;2022-08-19T10:48:41;26.10;90.70
18948;DHT22;9607;51.600;7.558;2022-08-19T10:51:08;26.10;91.20
18948;DHT22;9607;51.600;7.558;2022-08-19T10:53:55;26.00;91.10
18948;DHT22;9607;51.600;7.558;2022-08-19T10:56:22;26.10;91.00
18948;DHT22;9607;51.600;7.558;2022-08-19T10:59:06;26.30;90.30
18948;DHT22;9607;51.600;7.558;2022-08-19T11:01:34;26.30;89.30
18948;DHT22;9607;51.600;7.558;2022-08-19T11:04:02;26.30;86.90
18948;DHT22;9607;51.600;7.558;2022-08-19T11:06:31;26.30;87.40
18948;DHT22;9607;51.600;7.558;2022-08-19T11:09:00;26.40;88.00
18948;DHT22;9607;51.600;7.558;2022-08-19T11:11:27;26.50;85.70
18948;DHT22;9607;51.600;7.558;2022-08-19T11:13:55;26.70;83.60
18948;DHT22;9607;51.600;7.558;2022-08-19T11:16:24;26.80;81.10
18948;DHT22;9607;51.600;7.558;2022-08-19T11:18:54;26.80;80.20
18948;DHT22;9607;51.600;7.558;2022-08-19T11:21:25;26.80;80.00
18948;DHT22;9607;51.600;7.558;2022-08-19T11:23:55;26.70;83.20
18948;DHT22;9607;51.600;7.558;2022-08-19T11:26:24;26.50;84.90
18948;DHT22;9607;51.600;7.558;2022-08-19T11:28:51;26.50;85.80
18948;DHT22;9607;51.600;7.558;2022-08-19T11:31:21;26.50;86.30
18948;DHT22;9607;51.600;7.558;2022-08-19T11:33:48;26.60;85.40
18948;DHT22;9607;51.600;7.558;2022-08-19T11:36:17;26.80;84.10
18948;DHT22;9607;51.600;7.558;2022-08-19T11:38:44;27.10;82.20
18948;DHT22;9607;51.600;7.558;2022-08-19T11:41:14;27.30;81.40
18948;DHT22;9607;51.600;7.558;2022-08-19T11:43:44;27.50;79.20
18948;DHT22;9607;51.600;7.558;2022-08-19T11:46:13;27.50;79.00
18948;DHT22;9607;51.600;7.558;2022-08-19T11:48:41;27.60;77.20
18948;DHT22;9607;51.600;7.558;2022-08-19T11:51:13;27.70;75.40
18948;DHT22;9607;51.600;7.558;2022-08-19T11:53:40;27.60;73.80
18948;DHT22;9607;51.600;7.558;2022-08-19T11:56:08;27.70;73.70
18948;DHT22;9607;51.600;7.558;2022-08-19T11:58:36;27.80;72.80
18948;DHT22;9607;51.600;7.558;2022-08-19T12:01:07;28.00;71.50
18948;DHT22;9607;51.600;7.558;2022-08-19T12:03:34;28.10;72.30
18948;DHT22;9607;51.600;7.558;2022-08-19T12:06:04;28.00;71.10
18948;DHT22;9607;51.600;7.558;2022-08-19T12:08:31;28.00;71.10
18948;DHT22;9607;51.600;7.558;2022-08-19T12:10:58;28.00;70.90
18948;DHT22;9607;51.600;7.558;2022-08-19T12:13:27;28.00;70.00
18948;DHT22;9607;51.600;7.558;2022-08-19T12:15:54;28.00;69.20
18948;DHT22;9607;51.600;7.558;2022-08-19T12:18:22;28.00;68.10
18948;DHT22;9607;51.600;7.558;2022-08-19T12:20:51;28.20;67.40
18948;DHT22;9607;51.600;7.558;2022-08-19T12:23:18;28.50;66.70
18948;DHT22;9607;51.600;7.558;2022-08-19T12:25:46;28.80;63.60
18948;DHT22;9607;51.600;7.558;2022-08-19T12:28:15;29.00;62.80
18948;DHT22;9607;51.600;7.558;2022-08-19T12:30:42;29.00;62.30
18948;DHT22;9607;51.600;7.558;2022-08-19T12:33:09;28.90;60.00
18948;DHT22;9607;51.600;7.558;2022-08-19T12:35:39;28.90;60.30
18948;DHT22;9607;51.600;7.558;2022-08-19T12:38:06;29.00;61.40
18948;DHT22;9607;51.600;7.558;2022-08-19T12:40:33;29.00;62.90
18948;DHT22;9607;51.600;7.558;2022-08-19T12:43:00;29.00;63.80
18948;DHT22;9607;51.600;7.558;2022-08-19T12:45:26;29.00;62.40
18948;DHT22;9607;51.600;7.558;2022-08-19T12:47:54;28.90;61.60
18948;DHT22;9607;51.600;7.558;2022-08-19T12:50:21;28.90;62.30
18948;DHT22;9607;51.600;7.558;2022-08-19T12:52:49;28.90;60.80
18948;DHT22;9607;51.600;7.558;2022-08-19T12:55:16;28.90;60.80
18948;DHT22;9607;51.600;7.558;2022-08-19T12:57:44;29.00;59.80
18948;DHT22;9607;51.600;7.558;2022-08-19T13:00:14;28.90;58.80
18948;DHT22;9607;51.600;7.558;2022-08-19T13:02:44;28.90;59.90
18948;DHT22;9607;51.600;7.558;2022-08-19T13:05:14;28.90;61.30
18948;DHT22;9607;51.600;7.558;2022-08-19T13:07:42;29.00;61.60
18948;DHT22;9607;51.600;7.558;2022-08-19T13:10:12;29.20;60.70
18948;DHT22;9607;51.600;7.558;2022-08-19T13:12:41;28.90;60.10
18948;DHT22;9607;51.600;7.558;2022-08-19T13:15:09;28.60;61.80
18948;DHT22;9607;51.600;7.558;2022-08-19T13:17:37;28.40;62.60
18948;DHT22;9607;51.600;7.558;2022-08-19T13:20:06;28.30;63.40
18948;DHT22;9607;51.600;7.558;2022-08-19T13:22:33;28.30;63.30
18948;DHT22;9607;51.600;7.558;2022-08-19T13:25:01;28.50;62.90
18948;DHT22;9607;51.600;7.558;2022-08-19T13:27:29;28.70;61.50
18948;DHT22;9607;51.600;7.558;2022-08-19T13:29:56;28.80;61.80
18948;DHT22;9607;51.600;7.558;2022-08-19T13:32:40;28.90;60.80
18948;DHT22;9607;51.600;7.558;2022-08-19T13:35:24;28.70;59.90
18948;DHT22;9607;51.600;7.558;2022-08-19T13:37:51;28.60;60.80
18948;DHT22;9607;51.600;7.558;2022-08-19T13:40:21;28.60;62.00
18948;DHT22;9607;51.600;7.558;2022-08-19T13:42:53;28.70;60.00
18948;DHT22;9607;51.600;7.558;2022-08-19T13:45:23;28.80;58.60
18948;DHT22;9607;51.600;7.558;2022-08-19T13:47:52;28.70;58.90
18948;DHT22;9607;51.600;7.558;2022-08-19T13:50:22;28.70;58.80
18948;DHT22;9607;51.600;7.558;2022-08-19T13:52:50;28.60;59.10
18948;DHT22;9607;51.600;7.558;2022-08-19T13:55:17;28.30;58.50
18948;DHT22;9607;51.600;7.558;2022-08-19T13:57:45;28.30;58.10
18948;DHT22;9607;51.600;7.558;2022-08-19T14:00:16;28.20;57.90
18948;DHT22;9607;51.600;7.558;2022-08-19T14:02:44;28.30;58.10
18948;DHT22;9607;51.600;7.558;2022-08-19T14:05:14;28.30;58.50
18948;DHT22;9607;51.600;7.558;2022-08-19T14:07:41;28.30;59.70
18948;DHT22;9607;51.600;7.558;2022-08-19T14:10:10;28.40;58.00
18948;DHT22;9607;51.600;7.558;2022-08-19T14:12:38;28.50;57.90
18948;DHT22;9607;51.600;7.558;2022-08-19T14:15:06;28.70;58.00
18948;DHT22;9607;51.600;7.558;2022-08-19T14:17:37;28.80;58.20
18948;DHT22;9607;51.600;7.558;2022-08-19T14:20:06;29.10;57.60
18948;DHT22;9607;51.600;7.558;2022-08-19T14:22:36;29.10;57.10
18948;DHT22;9607;51.600;7.558;2022-08-19T14:25:04;29.20;56.90
18948;DHT22;9607;51.600;7.558;2022-08-19T14:27:32;29.20;56.10
18948;DHT22;9607;51.600;7.558;2022-08-19T14:29:59;29.20;56.70
18948;DHT22;9607;51.600;7.558;2022-08-19T14:32:26;29.40;56.80
18948;DHT22;9607;51.600;7.558;2022-08-19T14:34:55;29.40;56.70
18948;DHT22;9607;51.600;7.558;2022-08-19T14:37:22;29.40;57.00
18948;DHT22;9607;51.600;7.558;2022-08-19T14:39:49;29.40;56.90
18948;DHT22;9607;51.600;7.558;2022-08-19T14:42:16;29.50;56.60
18948;DHT22;9607;51.600;7.558;2022-08-19T14:44:43;29.50;55.70
18948;DHT22;9607;51.600;7.558;2022-08-19T14:47:10;29.60;55.60
18948;DHT22;9607;51.600;7.558;2022-08-19T14:49:37;29.80;55.30
18948;DHT22;9607;51.600;7.558;2022-08-19T14:52:06;30.00;55.60
18948;DHT22;9607;51.600;7.558;2022-08-19T14:54:34;30.20;53.60
18948;DHT22;9607;51.600;7.558;2022-08-19T14:57:02;30.50;54.10
18948;DHT22;9607;51.600;7.558;2022-08-19T14:59:28;30.70;53.30
18948;DHT22;9607;51.600;7.558;2022-08-19T15:01:55;31.00;52.60
18948;DHT22;9607;51.600;7.558;2022-08-19T15:04:22;31.30;52.70
18948;DHT22;9607;51.600;7.558;2022-08-19T15:06:49;31.70;51.00
18948;DHT22;9607;51.600;7.558;2022-08-19T15:09:17;31.80;49.90
18948;DHT22;9607;51.600;7.558;2022-08-19T15:11:44;31.90;49.60
18948;DHT22;9607;51.600;7.558;2022-08-19T15:14:11;32.20;49.80
18948;DHT22;9607;51.600;7.558;2022-08-19T15:16:40;33.00;48.40
18948;DHT22;9607;51.600;7.558;2022-08-19T15:19:08;34.10;47.00
18948;DHT22;9607;51.600;7.558;2022-08-19T15:21:35;34.90;45.50
18948;DHT22;9607;51.600;7.558;2022-08-19T15:24:03;35.70;44.20
18948;DHT22;9607;51.600;7.558;2022-08-19T15:26:31;36.30;42.60
18948;DHT22;9607;51.600;7.558;2022-08-19T15:28:59;36.30;41.20
18948;DHT22;9607;51.600;7.558;2022-08-19T15:31:26;36.20;41.10
18948;DHT22;9607;51.600;7.558;2022-08-19T15:33:54;36.30;41.00
18948;DHT22;9607;51.600;7.558;2022-08-19T15:36:22;36.50;39.90
18948;DHT22;9607;51.600;7.558;2022-08-19T15:38:50;36.10;40.20
18948;DHT22;9607;51.600;7.558;2022-08-19T15:41:20;35.40;41.20
18948;DHT22;9607;51.600;7.558;2022-08-19T15:43:53;34.80;42.20
18948;DHT22;9607;51.600;7.558;2022-08-19T15:46:23;34.20;43.30
18948;DHT22;9607;51.600;7.558;2022-08-19T15:48:51;33.50;43.70
18948;DHT22;9607;51.600;7.558;2022-08-19T15:51:19;32.80;44.60
18948;DHT22;9607;51.600;7.558;2022-08-19T15:53:46;32.10;45.60
18948;DHT22;9607;51.600;7.558;2022-08-19T15:56:14;31.50;46.40
18948;DHT22;9607;51.600;7.558;2022-08-19T15:58:41;31.00;47.40
18948;DHT22;9607;51.600;7.558;2022-08-19T16:01:28;30.60;48.60
18948;DHT22;9607;51.600;7.558;2022-08-19T16:04:09;30.20;49.00
18948;DHT22;9607;51.600;7.558;2022-08-19T16:06:55;29.90;49.80